Time;durP1;ratioP1;P1;durP2;ratioP2;P2;SDS_P1;SDS_P2;PMS_P1;PMS_P2;Temp;Humidity;BMP_temperature;BMP_pressure;BME280_temperature;BME280_humidity;BME280_pressure;Samples;Min_cycle;Max_cycle;Signal;HPM_P1;HPM_P2
2022/07/23 00:02:02;;;;;;;4.00;2.70;;;28.40;77.50;;;;;;5113500;28;20481;-72
2022/07/23 00:04:30;;;;;;;9.27;3.40;;;28.40;77.60;;;;;;5095781;28;20629;-73
2022/07/23 00:06:58;;;;;;;5.60;3.17;;;28.40;77.70;;;;;;5095552;28;20104;-73
2022/07/23 00:09:26;;;;;;;5.03;3.40;;;28.40;77.80;;;;;;5095333;28;20049;-74
2022/07/23 00:11:53;;;;;;;5.80;3.50;;;28.40;77.80;;;;;;5095812;28;20106;-72
2022/07/23 00:14:21;;;;;;;3.75;3.05;;;28.40;78.00;;;;;;5112801;28;20047;-73
2022/07/23 00:16:48;;;;;;;5.82;3.15;;;28.40;78.00;;;;;;5112851;28;20048;-73
2022/07/23 00:19:16;;;;;;;5.53;3.25;;;28.40;77.80;;;;;;5113356;28;20036;-73
2022/07/23 00:21:44;;;;;;;4.45;2.72;;;28.40;77.50;;;;;;5095915;28;20060;-73
2022/07/23 00:24:12;;;;;;;4.30;3.13;;;28.40;77.20;;;;;;5079390;28;20078;-73
2022/07/23 00:26:39;;;;;;;5.28;3.30;;;28.40;76.90;;;;;;5111643;28;20054;-73
2022/07/23 00:29:07;;;;;;;6.32;3.28;;;28.40;76.80;;;;;;5095470;28;20044;-72
2022/07/23 00:31:34;;;;;;;5.15;3.17;;;28.40;77.00;;;;;;5111476;28;20039;-73
2022/07/23 00:34:02;;;;;;;5.35;3.65;;;28.40;77.50;;;;;;5112446;28;20063;-72
2022/07/23 00:36:31;;;;;;;5.10;3.25;;;28.40;77.80;;;;;;5078672;28;20047;-72
2022/07/23 00:38:58;;;;;;;3.90;3.47;;;28.40;77.80;;;;;;5111358;28;20040;-73
2022/07/23 00:41:26;;;;;;;6.13;2.85;;;28.40;77.70;;;;;;5112525;28;20047;-72
2022/07/23 00:43:53;;;;;;;4.70;2.88;;;28.40;77.90;;;;;;5095140;28;20044;-72
2022/07/23 00:46:22;;;;;;;4.13;2.90;;;28.40;77.00;;;;;;5112407;28;20048;-72
2022/07/23 00:48:49;;;;;;;4.55;2.75;;;28.30;77.00;;;;;;5112236;28;20428;-73
2022/07/23 00:51:18;;;;;;;4.68;2.95;;;28.30;76.00;;;;;;5112164;28;20126;-73
2022/07/23 00:53:45;;;;;;;4.22;2.63;;;28.30;75.70;;;;;;5112188;28;20113;-73
2022/07/23 00:56:13;;;;;;;5.38;2.90;;;28.30;75.80;;;;;;5095545;28;20066;-72
2022/07/23 00:58:42;;;;;;;3.95;2.92;;;28.30;76.10;;;;;;5095028;28;20051;-72
2022/07/23 01:01:11;;;;;;;4.50;3.38;;;28.30;76.10;;;;;;5112222;28;20682;-72
2022/07/23 01:03:39;;;;;;;4.30;2.40;;;28.30;76.10;;;;;;5113000;28;20085;-73
2022/07/23 01:06:07;;;;;;;4.22;2.83;;;28.30;75.80;;;;;;5095823;28;20055;-72
2022/07/23 01:08:34;;;;;;;5.57;3.00;;;28.20;75.50;;;;;;5095051;28;20081;-73
2022/07/23 01:11:02;;;;;;;3.75;2.53;;;28.20;75.30;;;;;;5095154;28;20044;-73
2022/07/23 01:13:29;;;;;;;4.65;3.22;;;28.20;75.00;;;;;;5111640;28;20474;-72
2022/07/23 01:15:57;;;;;;;4.20;2.65;;;28.20;74.60;;;;;;5094988;28;20138;-73
2022/07/23 01:18:25;;;;;;;3.85;2.70;;;28.20;74.30;;;;;;5112189;28;20040;-72
2022/07/23 01:20:52;;;;;;;5.00;2.55;;;28.10;74.10;;;;;;5111807;28;20418;-73
2022/07/23 01:23:20;;;;;;;4.22;3.00;;;28.20;73.90;;;;;;5110258;28;20102;-72
2022/07/23 01:25:54;;;;;;;2.95;2.08;;;28.10;73.50;;;;;;5107707;28;20040;-72
2022/07/23 01:28:23;;;;;;;4.53;3.13;;;28.10;73.30;;;;;;5074798;28;20105;-73
2022/07/23 01:30:51;;;;;;;5.15;2.95;;;28.10;72.90;;;;;;5091123;28;20599;-72
2022/07/23 01:33:18;;;;;;;4.60;2.65;;;28.10;72.80;;;;;;5074012;28;20528;-73
2022/07/23 01:35:46;;;;;;;4.32;2.47;;;28.10;72.60;;;;;;5074131;28;20486;-72
2022/07/23 01:38:19;;;;;;;4.25;2.60;;;28.10;72.10;;;;;;5075047;28;20097;-72
2022/07/23 01:40:46;;;;;;;3.97;3.00;;;28.10;71.90;;;;;;5090594;28;20032;-72
2022/07/23 01:43:16;;;;;;;4.28;2.90;;;28.10;71.70;;;;;;5058190;28;20052;-72
2022/07/23 01:45:44;;;;;;;5.05;2.35;;;28.00;71.30;;;;;;5091055;28;20040;-72
2022/07/23 01:48:13;;;;;;;3.97;2.70;;;28.00;71.20;;;;;;5108212;28;20131;-72
2022/07/23 01:50:50;;;;;;;4.22;2.45;;;28.00;71.10;;;;;;5074226;28;20567;-72
2022/07/23 01:53:31;;;;;;;5.78;3.13;;;28.00;71.00;;;;;;5075495;28;20044;-74
2022/07/23 01:55:59;;;;;;;4.18;2.80;;;28.00;70.80;;;;;;5057768;28;20067;-73
2022/07/23 01:58:27;;;;;;;3.83;2.63;;;28.10;70.70;;;;;;5074022;28;20080;-73
2022/07/23 02:00:55;;;;;;;3.85;2.20;;;28.00;70.20;;;;;;5073322;28;20051;-73
2022/07/23 02:03:23;;;;;;;3.80;2.65;;;28.00;70.10;;;;;;5089783;28;20051;-73
2022/07/23 02:05:51;;;;;;;3.65;2.38;;;28.00;70.00;;;;;;5089556;28;20070;-72
2022/07/23 02:08:19;;;;;;;2.95;2.10;;;28.10;70.00;;;;;;5072525;28;20044;-72
2022/07/23 02:10:47;;;;;;;4.45;2.55;;;28.10;69.80;;;;;;5089292;28;20069;-72
2022/07/23 02:13:15;;;;;;;4.35;2.50;;;28.10;69.80;;;;;;5098868;28;20132;-72
2022/07/23 02:15:43;;;;;;;4.53;3.08;;;28.10;69.80;;;;;;5090425;28;20151;-72
2022/07/23 02:18:10;;;;;;;3.35;2.22;;;28.10;70.10;;;;;;5089913;28;20123;-73
2022/07/23 02:20:38;;;;;;;4.60;2.85;;;28.00;70.20;;;;;;5090053;28;20044;-72
2022/07/23 02:23:07;;;;;;;4.85;2.65;;;28.00;70.50;;;;;;5090362;28;20048;-73
2022/07/23 02:25:35;;;;;;;5.50;3.17;;;28.00;70.90;;;;;;5073904;28;20105;-75
2022/07/23 02:28:03;;;;;;;3.88;2.40;;;28.00;71.40;;;;;;5107442;28;20760;-72
2022/07/23 02:30:30;;;;;;;4.65;3.00;;;28.00;71.80;;;;;;5093015;28;20040;-72
2022/07/23 02:32:58;;;;;;;4.20;3.08;;;28.00;72.40;;;;;;5076252;28;20047;-73
2022/07/23 02:35:26;;;;;;;5.13;3.35;;;28.00;72.90;;;;;;5076712;28;20044;-73
2022/07/23 02:37:55;;;;;;;5.43;3.75;;;28.00;73.50;;;;;;5093556;28;20047;-72
2022/07/23 02:40:23;;;;;;;5.22;3.97;;;28.00;74.20;;;;;;5110011;28;20035;-73
2022/07/23 02:42:51;;;;;;;7.30;4.75;;;27.90;75.10;;;;;;5110014;28;20053;-72
2022/07/23 02:45:18;;;;;;;4.85;3.92;;;27.90;75.80;;;;;;5110193;28;20501;-73
2022/07/23 02:47:46;;;;;;;6.47;3.70;;;27.90;76.20;;;;;;5075858;28;20112;-73
2022/07/23 02:50:13;;;;;;;5.15;4.10;;;27.90;76.40;;;;;;5093563;28;20413;-73
2022/07/23 02:52:41;;;;;;;5.20;4.15;;;27.80;76.30;;;;;;5093334;28;20032;-72
2022/07/23 02:55:08;;;;;;;8.18;4.18;;;27.80;76.40;;;;;;5109548;28;20082;-74
2022/07/23 02:57:36;;;;;;;6.45;4.10;;;27.80;76.70;;;;;;5109722;28;20032;-72
2022/07/23 03:00:06;;;;;;;4.78;3.97;;;27.80;76.80;;;;;;5075657;28;20568;-73
2022/07/23 03:02:34;;;;;;;5.65;4.10;;;27.80;76.80;;;;;;5080948;28;20047;-73
2022/07/23 03:05:02;;;;;;;5.32;3.92;;;27.80;76.80;;;;;;5090168;28;20089;-73
2022/07/23 03:07:30;;;;;;;5.90;4.40;;;27.80;77.10;;;;;;5072325;28;20118;-73
2022/07/23 03:09:57;;;;;;;11.02;4.30;;;27.80;77.30;;;;;;5073608;28;20052;-72
2022/07/23 03:12:25;;;;;;;6.47;3.78;;;27.80;77.30;;;;;;5092987;28;20050;-73
2022/07/23 03:14:53;;;;;;;7.32;4.78;;;27.80;77.10;;;;;;5076841;28;20040;-73
2022/07/23 03:17:20;;;;;;;6.32;3.83;;;27.80;77.00;;;;;;5089288;28;20083;-72
2022/07/23 03:19:48;;;;;;;5.68;4.13;;;27.80;76.70;;;;;;5089136;28;20395;-73
2022/07/23 03:22:15;;;;;;;5.63;4.00;;;27.80;76.50;;;;;;5071339;28;20048;-73
2022/07/23 03:24:56;;;;;;;5.15;3.90;;;27.80;76.30;;;;;;5071750;28;20493;-73
2022/07/23 03:27:28;;;;;;;4.90;3.63;;;27.80;75.90;;;;;;5071785;28;20052;-72
2022/07/23 03:29:58;;;;;;;4.55;3.85;;;27.80;75.30;;;;;;5072568;28;20614;-72
2022/07/23 03:32:26;;;;;;;5.28;4.53;;;27.80;74.90;;;;;;5089157;28;20046;-73
2022/07/23 03:34:53;;;;;;;7.43;3.80;;;27.80;74.80;;;;;;5072120;28;20044;-73
2022/07/23 03:37:22;;;;;;;5.00;3.53;;;27.80;74.80;;;;;;5072247;28;20052;-73
2022/07/23 03:39:50;;;;;;;5.28;3.38;;;27.80;74.60;;;;;;5072217;28;20155;-73
2022/07/23 03:42:18;;;;;;;8.27;3.83;;;27.80;74.40;;;;;;5072156;28;20109;-72
2022/07/23 03:44:46;;;;;;;6.10;3.72;;;27.70;74.30;;;;;;5072518;28;20722;-73
2022/07/23 03:47:14;;;;;;;6.50;3.80;;;27.70;73.90;;;;;;5088839;28;20448;-72
2022/07/23 03:49:43;;;;;;;7.25;4.13;;;27.70;73.50;;;;;;5088575;28;20044;-73
2022/07/23 03:52:11;;;;;;;5.60;3.63;;;27.70;73.10;;;;;;5071774;28;20045;-73
2022/07/23 03:54:38;;;;;;;8.65;3.67;;;27.80;73.20;;;;;;5071625;28;20072;-73
2022/07/23 03:57:07;;;;;;;4.70;3.50;;;27.80;73.20;;;;;;5088912;28;20067;-72
2022/07/23 03:59:35;;;;;;;7.85;3.63;;;27.80;73.60;;;;;;5088127;28;20090;-73
2022/07/23 04:02:02;;;;;;;7.72;3.63;;;27.80;73.70;;;;;;5109258;28;20645;-72
2022/07/23 04:04:30;;;;;;;4.55;3.42;;;27.90;73.90;;;;;;5108882;28;20489;-73
2022/07/23 04:06:58;;;;;;;4.68;3.42;;;27.90;74.10;;;;;;5089804;28;20036;-72
2022/07/23 04:09:26;;;;;;;5.63;4.05;;;28.00;74.80;;;;;;5108503;28;20039;-72
2022/07/23 04:11:54;;;;;;;5.15;3.65;;;28.00;74.40;;;;;;5074834;28;20047;-73
2022/07/23 04:14:21;;;;;;;5.82;4.65;;;28.10;74.70;;;;;;5092180;28;20742;-73
2022/07/23 04:16:49;;;;;;;7.22;4.13;;;28.10;74.90;;;;;;5075361;28;20432;-72
2022/07/23 04:19:16;;;;;;;6.82;4.40;;;28.20;75.10;;;;;;5074934;28;20146;-72
2022/07/23 04:21:57;;;;;;;10.48;5.80;;;28.30;75.30;;;;;;5093670;28;20436;-72
2022/07/23 04:24:25;;;;;;;7.97;4.72;;;28.30;75.50;;;;;;5092466;28;20040;-73
2022/07/23 04:26:53;;;;;;;6.15;4.95;;;28.40;75.70;;;;;;5091333;28;20056;-73
2022/07/23 04:29:20;;;;;;;8.52;5.22;;;28.50;75.70;;;;;;5091884;28;20047;-73
2022/07/23 04:31:48;;;;;;;7.80;4.78;;;28.50;75.50;;;;;;5108197;28;20047;-73
2022/07/23 04:34:17;;;;;;;5.80;4.00;;;28.60;75.30;;;;;;5094817;28;20486;-73
2022/07/23 04:36:45;;;;;;;4.88;3.95;;;28.70;74.90;;;;;;5112343;28;20047;-73
2022/07/23 04:39:13;;;;;;;5.05;3.92;;;28.80;74.60;;;;;;5113023;28;20500;-73
2022/07/23 04:41:42;;;;;;;5.55;3.83;;;29.00;74.50;;;;;;5094984;28;20543;-72
2022/07/23 04:44:09;;;;;;;7.25;3.90;;;29.00;74.00;;;;;;5095806;28;20071;-72
2022/07/23 04:46:37;;;;;;;4.10;3.30;;;29.10;73.60;;;;;;5091536;28;20044;-73
2022/07/23 04:49:08;;;;;;;7.03;3.13;;;29.20;73.30;;;;;;5075309;28;20056;-73
2022/07/23 04:51:36;;;;;;;3.85;3.45;;;29.40;72.90;;;;;;5075477;28;20044;-73
2022/07/23 04:54:04;;;;;;;5.65;3.35;;;29.50;72.70;;;;;;5091798;28;20048;-72
2022/07/23 04:56:31;;;;;;;6.47;3.72;;;29.60;72.10;;;;;;5108866;28;20041;-73
2022/07/23 04:59:00;;;;;;;7.00;3.45;;;29.70;71.80;;;;;;5075512;28;20441;-73
2022/07/23 05:01:28;;;;;;;5.00;2.97;;;29.90;71.40;;;;;;5091688;28;20040;-73
2022/07/23 05:03:56;;;;;;;3.97;3.08;;;30.00;71.30;;;;;;5074909;28;20135;-73
2022/07/23 05:06:27;;;;;;;6.30;4.05;;;30.10;71.00;;;;;;5059095;28;20110;-73
2022/07/23 05:08:56;;;;;;;13.27;4.97;;;30.30;70.40;;;;;;5075067;28;20052;-73
2022/07/23 05:11:24;;;;;;;9.82;5.20;;;30.40;69.90;;;;;;5074725;28;20051;-72
2022/07/23 05:13:53;;;;;;;11.63;6.68;;;30.60;69.80;;;;;;5091697;28;20050;-73
2022/07/23 05:16:21;;;;;;;11.18;6.15;;;30.70;69.50;;;;;;5074354;28;20091;-73
2022/07/23 05:18:51;;;;;;;10.10;6.43;;;30.80;68.90;;;;;;5074444;28;20048;-73
2022/07/23 05:21:18;;;;;;;9.68;5.35;;;30.90;68.30;;;;;;5091731;28;20064;-74
2022/07/23 05:23:46;;;;;;;7.65;5.15;;;31.10;67.20;;;;;;5074249;28;20090;-73
2022/07/23 05:26:14;;;;;;;6.60;4.03;;;31.20;67.20;;;;;;5091245;28;20048;-74
2022/07/23 05:28:41;;;;;;;8.32;3.97;;;31.40;66.90;;;;;;5092374;28;20094;-72
2022/07/23 05:31:11;;;;;;;10.02;3.85;;;31.50;66.50;;;;;;5074919;28;20142;-72
2022/07/23 05:33:39;;;;;;;6.07;3.55;;;31.60;66.70;;;;;;5073943;28;20047;-72
2022/07/23 05:36:07;;;;;;;7.18;3.47;;;31.80;66.70;;;;;;5074123;28;20139;-72
2022/07/23 05:38:43;;;;;;;6.07;3.60;;;31.90;66.10;;;;;;5074530;28;20500;-73
2022/07/23 05:41:11;;;;;;;7.70;3.88;;;32.10;65.90;;;;;;5069404;28;20547;-73
2022/07/23 05:43:38;;;;;;;6.40;3.53;;;32.10;65.50;;;;;;5073181;28;20054;-73
2022/07/23 05:46:10;;;;;;;4.68;3.35;;;32.30;65.10;;;;;;5074152;28;20043;-73
2022/07/23 05:48:42;;;;;;;9.23;3.72;;;32.40;64.50;;;;;;5058107;28;20086;-72
2022/07/23 05:51:27;;;;;;;6.07;3.40;;;32.50;64.10;;;;;;5074259;28;20048;-75
2022/07/23 05:53:55;;;;;;;9.45;4.10;;;32.60;63.60;;;;;;5090858;28;20043;-73
2022/07/23 05:56:27;;;;;;;6.65;3.85;;;32.70;63.60;;;;;;5090666;28;20044;-73
2022/07/23 05:58:55;;;;;;;6.43;3.53;;;32.90;63.30;;;;;;5073969;28;20101;-73
2022/07/23 06:01:22;;;;;;;4.80;3.50;;;33.00;63.50;;;;;;5090555;28;20036;-73
2022/07/23 06:04:16;;;;;;;8.02;3.63;;;33.10;63.00;;;;;;5074547;28;20067;-72
2022/07/23 06:06:55;;;;;;;6.25;3.33;;;33.30;62.70;;;;;;5090066;28;20126;-73
2022/07/23 06:09:23;;;;;;;6.78;3.95;;;33.50;62.60;;;;;;5073815;28;20077;-73
2022/07/23 06:11:50;;;;;;;7.32;4.10;;;33.60;61.90;;;;;;5090043;28;20122;-73
2022/07/23 06:14:18;;;;;;;6.93;4.88;;;33.70;61.30;;;;;;5088750;28;20055;-72
2022/07/23 06:16:55;;;;;;;7.82;3.83;;;33.80;61.40;;;;;;5089717;28;20040;-72
2022/07/23 06:19:23;;;;;;;8.05;4.32;;;33.90;61.40;;;;;;5072524;28;20486;-72
2022/07/23 06:21:51;;;;;;;6.15;4.18;;;34.00;61.30;;;;;;5073078;28;20052;-73
2022/07/23 06:24:19;;;;;;;7.65;3.72;;;34.10;61.40;;;;;;5073244;28;20076;-73
2022/07/23 06:26:48;;;;;;;10.60;4.88;;;34.10;61.60;;;;;;5072978;28;20506;-72
2022/07/23 06:29:16;;;;;;;10.88;5.57;;;34.20;62.00;;;;;;5089547;28;20039;-72
2022/07/23 06:31:43;;;;;;;10.18;5.13;;;34.20;62.10;;;;;;5072636;28;20055;-73
2022/07/23 06:34:13;;;;;;;7.50;5.22;;;34.20;61.60;;;;;;5073098;28;20425;-73
2022/07/23 06:36:41;;;;;;;8.77;5.47;;;34.30;61.10;;;;;;5073072;28;20048;-73
2022/07/23 06:39:08;;;;;;;10.07;5.13;;;34.30;61.00;;;;;;5100973;28;20032;-73
2022/07/23 06:41:38;;;;;;;8.85;4.82;;;34.40;61.40;;;;;;5092915;28;20052;-72
2022/07/23 06:44:05;;;;;;;6.50;4.22;;;34.40;61.40;;;;;;5076454;28;20129;-72
2022/07/23 06:46:35;;;;;;;7.47;4.30;;;34.50;61.40;;;;;;5110152;28;20069;-73
2022/07/23 06:49:04;;;;;;;5.75;4.43;;;34.50;61.40;;;;;;5093360;28;20047;-73
2022/07/23 06:51:32;;;;;;;6.05;3.88;;;34.50;61.10;;;;;;5110106;28;20063;-72
2022/07/23 06:54:01;;;;;;;5.90;4.18;;;34.40;59.90;;;;;;5109484;28;20054;-74
2022/07/23 06:56:29;;;;;;;5.13;3.20;;;34.50;59.90;;;;;;5092574;28;20385;-73
2022/07/23 06:58:56;;;;;;;6.07;3.92;;;34.60;60.00;;;;;;5093217;28;20094;-73
2022/07/23 07:01:26;;;;;;;8.90;4.13;;;34.70;59.50;;;;;;5111262;28;20047;-73
2022/07/23 07:03:54;;;;;;;6.63;4.13;;;34.90;59.00;;;;;;5110087;28;20043;-72
2022/07/23 07:06:21;;;;;;;5.53;3.83;;;34.90;58.50;;;;;;5110184;28;20517;-72
2022/07/23 07:08:49;;;;;;;5.82;3.45;;;35.00;58.40;;;;;;5093249;28;20051;-73
2022/07/23 07:11:17;;;;;;;4.93;3.35;;;35.20;58.70;;;;;;5110435;28;20043;-72
2022/07/23 07:13:44;;;;;;;4.45;3.78;;;35.30;58.40;;;;;;5092065;28;20078;-73
2022/07/23 07:16:12;;;;;;;5.63;3.25;;;35.50;57.90;;;;;;5092919;28;20040;-73
2022/07/23 07:18:39;;;;;;;7.18;3.58;;;35.60;57.60;;;;;;5092383;28;20036;-73
2022/07/23 07:21:07;;;;;;;9.20;3.05;;;35.70;57.70;;;;;;5093039;28;20074;-73
2022/07/23 07:23:35;;;;;;;8.00;3.22;;;35.80;57.70;;;;;;5109304;28;20067;-73
2022/07/23 07:26:02;;;;;;;5.60;2.95;;;35.90;57.10;;;;;;5109511;28;20042;-73
2022/07/23 07:28:30;;;;;;;4.35;2.97;;;35.90;57.80;;;;;;5110658;28;20046;-73
2022/07/23 07:30:58;;;;;;;4.60;2.90;;;36.00;57.90;;;;;;5109165;28;20073;-73
2022/07/23 07:33:25;;;;;;;4.47;3.28;;;36.00;57.60;;;;;;5108824;28;20040;-73
2022/07/23 07:35:53;;;;;;;6.03;3.00;;;36.10;58.10;;;;;;5071763;28;20076;-74
2022/07/23 07:38:21;;;;;;;4.65;2.97;;;36.20;57.00;;;;;;5056176;28;20071;-73
2022/07/23 07:40:49;;;;;;;6.28;2.97;;;36.20;56.80;;;;;;5088350;28;20044;-73
2022/07/23 07:43:17;;;;;;;4.05;2.63;;;36.30;57.40;;;;;;5105775;28;20079;-74
2022/07/23 07:45:44;;;;;;;4.50;3.10;;;36.40;56.80;;;;;;5106080;28;20063;-73
2022/07/23 07:48:12;;;;;;;3.70;2.80;;;36.50;56.60;;;;;;5088827;28;20079;-73
2022/07/23 07:50:39;;;;;;;6.00;2.97;;;36.50;56.20;;;;;;5088417;28;20036;-74
2022/07/23 07:53:08;;;;;;;4.93;2.88;;;36.60;56.40;;;;;;5089959;28;20048;-74
2022/07/23 07:55:36;;;;;;;3.72;2.85;;;36.60;55.60;;;;;;5105028;28;20581;-74
2022/07/23 07:58:03;;;;;;;5.32;2.80;;;36.60;56.10;;;;;;5071348;28;20089;-73
2022/07/23 08:00:32;;;;;;;4.63;3.00;;;36.60;56.20;;;;;;5088839;28;20047;-73
2022/07/23 08:03:00;;;;;;;4.28;2.53;;;36.70;56.00;;;;;;5089836;28;20052;-73
2022/07/23 08:05:29;;;;;;;4.30;2.78;;;36.60;55.90;;;;;;5088680;28;20138;-74
2022/07/23 08:07:59;;;;;;;4.60;3.35;;;36.80;55.80;;;;;;5073456;28;20044;-74
2022/07/23 08:10:27;;;;;;;5.93;2.92;;;36.80;55.50;;;;;;5092392;28;20040;-73
2022/07/23 08:12:56;;;;;;;4.32;2.90;;;36.80;55.50;;;;;;5092382;28;20036;-74
2022/07/23 08:15:26;;;;;;;3.95;2.95;;;37.00;55.30;;;;;;5059216;28;20090;-73
2022/07/23 08:17:54;;;;;;;5.13;3.20;;;37.00;55.10;;;;;;5075404;28;20048;-73
2022/07/23 08:20:23;;;;;;;5.47;2.80;;;37.10;55.30;;;;;;5075506;28;20086;-73
2022/07/23 08:23:05;;;;;;;6.35;3.30;;;37.10;54.70;;;;;;5058660;28;20151;-74
2022/07/23 08:25:42;;;;;;;6.30;2.95;;;37.00;54.70;;;;;;5091922;28;20552;-74
2022/07/23 08:28:12;;;;;;;3.47;2.60;;;37.10;55.40;;;;;;5092369;28;20044;-73
2022/07/23 08:30:42;;;;;;;3.90;2.92;;;37.10;55.10;;;;;;5092791;28;20076;-73
2022/07/23 08:33:13;;;;;;;6.82;3.00;;;37.10;54.90;;;;;;5075658;28;20520;-73
2022/07/23 08:35:44;;;;;;;6.25;3.10;;;37.10;54.50;;;;;;5092033;28;20566;-73
2022/07/23 08:38:12;;;;;;;12.23;3.58;;;37.20;54.90;;;;;;5075034;28;20040;-73
2022/07/23 08:40:43;;;;;;;6.32;3.17;;;37.30;54.90;;;;;;5074837;28;20048;-74
2022/07/23 08:43:22;;;;;;;4.95;3.15;;;37.30;54.40;;;;;;5075333;28;20040;-73
2022/07/23 08:45:58;;;;;;;6.85;3.45;;;37.10;53.80;;;;;;5091894;28;20139;-73
2022/07/23 08:48:36;;;;;;;5.38;3.53;;;37.10;54.70;;;;;;5075704;28;20040;-74
2022/07/23 08:51:05;;;;;;;7.97;3.75;;;37.20;54.50;;;;;;5091993;28;20086;-73
2022/07/23 08:53:38;;;;;;;6.95;3.55;;;37.40;54.60;;;;;;5092992;28;20048;-73
2022/07/23 08:56:07;;;;;;;4.18;3.25;;;37.30;54.60;;;;;;5074782;28;20143;-74
2022/07/23 08:58:35;;;;;;;6.57;3.58;;;37.40;54.70;;;;;;5074534;28;20052;-73
2022/07/23 09:01:03;;;;;;;5.80;3.17;;;37.50;54.60;;;;;;5058571;28;20055;-74
2022/07/23 09:03:35;;;;;;;4.00;2.92;;;37.50;54.80;;;;;;5073943;28;20047;-74
2022/07/23 09:06:04;;;;;;;5.07;2.90;;;37.50;54.90;;;;;;5091125;28;20048;-74
2022/07/23 09:08:43;;;;;;;4.25;3.00;;;37.50;54.60;;;;;;5057603;28;20074;-73
2022/07/23 09:11:16;;;;;;;8.80;3.50;;;37.50;54.10;;;;;;5074774;28;20087;-74
2022/07/23 09:13:49;;;;;;;4.47;3.13;;;37.60;54.20;;;;;;5074248;28;20056;-77
2022/07/23 09:16:25;;;;;;;3.67;2.67;;;37.50;54.90;;;;;;5074135;28;20051;-74
2022/07/23 09:19:07;;;;;;;2.90;2.55;;;37.50;54.60;;;;;;5090602;28;20052;-74
2022/07/23 09:21:37;;;;;;;5.70;3.22;;;37.50;54.60;;;;;;5074246;28;20089;-74
2022/07/23 09:24:17;;;;;;;9.55;3.20;;;37.50;54.70;;;;;;5074070;28;20044;-75
2022/07/23 09:26:47;;;;;;;6.07;2.90;;;37.50;54.60;;;;;;5074320;28;20616;-74
2022/07/23 09:29:21;;;;;;;3.58;2.58;;;37.50;54.80;;;;;;5074025;28;20117;-74
2022/07/23 09:31:59;;;;;;;4.28;2.95;;;37.60;54.70;;;;;;5081722;28;20072;-73
2022/07/23 09:34:32;;;;;;;15.07;3.95;;;37.60;54.70;;;;;;5057081;28;20486;-74
2022/07/23 09:37:13;;;;;;;5.22;2.80;;;37.50;54.10;;;;;;5090521;28;20490;-76
2022/07/23 09:39:43;;;;;;;4.57;2.90;;;37.50;54.60;;;;;;5090667;28;20060;-73
2022/07/23 09:42:19;;;;;;;4.68;2.63;;;37.40;54.30;;;;;;5090976;28;20052;-74
2022/07/23 09:44:49;;;;;;;3.35;2.67;;;37.10;54.50;;;;;;5074130;28;20056;-74
2022/07/23 09:47:18;;;;;;;12.43;3.40;;;37.10;54.70;;;;;;5090573;28;20054;-73
2022/07/23 09:50:09;;;;;;;5.20;2.80;;;37.20;54.90;;;;;;5090282;28;20050;-73
2022/07/23 09:52:49;;;;;;;6.68;2.92;;;37.20;54.90;;;;;;5090266;28;20501;-73
2022/07/23 09:55:18;;;;;;;3.80;2.47;;;37.30;54.90;;;;;;5056150;28;20182;-73
2022/07/23 09:57:52;;;;;;;3.42;2.80;;;37.30;55.10;;;;;;5073843;28;20563;-73
2022/07/23 10:00:21;;;;;;;4.18;3.47;;;37.10;54.60;;;;;;5057619;28;20066;-72
2022/07/23 10:02:49;;;;;;;4.38;2.70;;;37.00;55.10;;;;;;5090825;28;20048;-72
2022/07/23 10:05:38;;;;;;;3.75;2.90;;;37.00;55.20;;;;;;5083192;28;20418;-73
2022/07/23 10:08:35;;;;;;;3.70;2.90;;;36.90;55.00;;;;;;5090024;28;20043;-73
2022/07/23 10:11:34;;;;;;;3.33;2.45;;;36.90;55.00;;;;;;5072828;28;20048;-73
2022/07/23 10:14:20;;;;;;;6.07;2.63;;;36.70;54.70;;;;;;5072882;28;20047;-72
2022/07/23 10:16:54;;;;;;;4.50;2.72;;;36.60;54.40;;;;;;5072910;28;20044;-73
2022/07/23 10:19:23;;;;;;;4.95;3.03;;;36.60;55.00;;;;;;5090926;28;20101;-72
2022/07/23 10:21:55;;;;;;;4.55;3.15;;;36.70;54.60;;;;;;5056647;28;20566;-74
2022/07/23 10:25:06;;;;;;;5.63;2.55;;;36.80;54.20;;;;;;5073105;28;20582;-73
2022/07/23 10:28:06;;;;;;;3.83;3.03;;;36.90;53.70;;;;;;5089887;28;20052;-72
2022/07/23 10:30:53;;;;;;;5.20;3.03;;;36.90;54.00;;;;;;5097672;28;20040;-73
2022/07/23 10:33:51;;;;;;;7.20;3.05;;;36.90;54.10;;;;;;5089840;28;20040;-74
2022/07/23 10:36:40;;;;;;;3.10;2.40;;;36.90;54.00;;;;;;5089618;28;20052;-72
2022/07/23 10:39:36;;;;;;;2.65;2.08;;;37.00;53.90;;;;;;5056468;28;20097;-74
2022/07/23 10:42:16;;;;;;;5.63;2.92;;;37.00;53.90;;;;;;5072429;28;20052;-73
2022/07/23 10:44:47;;;;;;;4.60;2.63;;;37.10;54.20;;;;;;5072457;28;20040;-72
2022/07/23 10:47:44;;;;;;;5.47;2.70;;;37.00;54.10;;;;;;5072351;28;20071;-73
2022/07/23 10:50:24;;;;;;;3.78;2.40;;;37.00;53.80;;;;;;5072680;28;20401;-73
2022/07/23 10:53:21;;;;;;;4.35;2.92;;;37.00;54.00;;;;;;5056667;28;20048;-72
2022/07/23 10:55:52;;;;;;;3.50;2.67;;;37.10;54.60;;;;;;5086349;28;20048;-73
2022/07/23 10:58:23;;;;;;;3.38;2.47;;;37.10;54.60;;;;;;5089073;28;20032;-72
2022/07/23 11:00:51;;;;;;;3.25;2.38;;;37.10;54.20;;;;;;5072366;28;20134;-72
2022/07/23 11:03:37;;;;;;;2.92;2.20;;;37.00;54.20;;;;;;5072594;28;20051;-74
2022/07/23 11:06:06;;;;;;;6.63;2.97;;;37.00;54.40;;;;;;5072250;28;20116;-73
2022/07/23 11:08:33;;;;;;;4.65;2.30;;;37.00;54.50;;;;;;5088272;28;20089;-73
2022/07/23 11:11:01;;;;;;;3.03;2.33;;;36.90;54.10;;;;;;5072026;28;20044;-73
2022/07/23 11:13:36;;;;;;;5.05;2.58;;;36.90;54.50;;;;;;5089025;28;20048;-72
2022/07/23 11:16:23;;;;;;;4.93;2.42;;;37.00;54.70;;;;;;5089476;28;20075;-72
2022/07/23 11:18:57;;;;;;;8.10;2.53;;;36.90;54.40;;;;;;5088688;28;20080;-72
2022/07/23 11:21:29;;;;;;;3.38;2.33;;;37.00;54.00;;;;;;5055557;28;20052;-72
2022/07/23 11:23:59;;;;;;;4.28;2.50;;;36.90;53.90;;;;;;5072458;28;20177;-73
2022/07/23 11:26:47;;;;;;;3.13;2.22;;;36.90;54.30;;;;;;5088866;28;20409;-74
2022/07/23 11:29:36;;;;;;;4.63;2.47;;;36.90;54.10;;;;;;5071382;28;20043;-73
2022/07/23 11:32:23;;;;;;;3.38;2.67;;;37.00;54.10;;;;;;5092776;28;20035;-72
2022/07/23 11:34:53;;;;;;;3.28;2.63;;;37.00;54.20;;;;;;5076162;28;20410;-73
2022/07/23 11:37:28;;;;;;;5.07;2.90;;;37.10;54.20;;;;;;5092546;28;20048;-73
2022/07/23 11:39:58;;;;;;;3.63;2.53;;;37.10;54.10;;;;;;5108897;28;20047;-73
2022/07/23 11:42:25;;;;;;;4.03;3.05;;;37.10;53.90;;;;;;5109964;28;20130;-73
2022/07/23 11:44:57;;;;;;;5.90;2.92;;;37.00;53.60;;;;;;5113211;28;20054;-73
2022/07/23 11:47:26;;;;;;;4.30;2.50;;;37.00;53.60;;;;;;5096830;28;20047;-73
2022/07/23 11:49:57;;;;;;;4.63;2.65;;;36.80;53.50;;;;;;5113733;28;20051;-73
2022/07/23 11:52:27;;;;;;;3.72;2.97;;;36.80;53.70;;;;;;5096180;28;20051;-73
2022/07/23 11:54:59;;;;;;;3.72;2.75;;;36.80;53.50;;;;;;5096720;28;20469;-73
2022/07/23 11:57:39;;;;;;;3.92;2.70;;;36.80;53.20;;;;;;5096412;28;20047;-74
2022/07/23 12:00:12;;;;;;;5.88;2.90;;;36.90;53.80;;;;;;5096318;28;20505;-74
2022/07/23 12:03:01;;;;;;;5.38;3.20;;;37.00;53.80;;;;;;5079691;28;20055;-73
2022/07/23 12:05:35;;;;;;;5.90;3.92;;;37.00;53.30;;;;;;5096377;28;20135;-73
2022/07/23 12:08:05;;;;;;;4.80;3.60;;;37.00;53.70;;;;;;5079563;28;20062;-73
2022/07/23 12:10:36;;;;;;;4.38;3.10;;;37.00;52.90;;;;;;5114538;28;20050;-73
2022/07/23 12:13:07;;;;;;;3.55;3.03;;;37.00;53.60;;;;;;5095982;28;20528;-73
2022/07/23 12:15:39;;;;;;;3.45;2.58;;;37.00;53.40;;;;;;5078915;28;20048;-74
2022/07/23 12:18:10;;;;;;;4.30;2.85;;;37.00;52.90;;;;;;5095762;28;20044;-73
2022/07/23 12:20:42;;;;;;;5.63;3.22;;;36.90;53.00;;;;;;5094617;28;20048;-73
2022/07/23 12:23:13;;;;;;;4.25;3.17;;;36.90;52.80;;;;;;5075263;28;20063;-73
2022/07/23 12:25:42;;;;;;;4.68;2.50;;;36.80;52.90;;;;;;5092115;28;20496;-72
2022/07/23 12:28:20;;;;;;;4.10;2.80;;;36.70;52.70;;;;;;5091372;28;20044;-73
2022/07/23 12:30:53;;;;;;;4.65;3.05;;;36.70;52.70;;;;;;5092242;28;20108;-73
2022/07/23 12:33:41;;;;;;;8.23;2.95;;;36.70;53.30;;;;;;5092380;28;20490;-73
2022/07/23 12:36:11;;;;;;;3.47;2.80;;;36.70;53.60;;;;;;5091786;28;20048;-73
2022/07/23 12:38:46;;;;;;;6.57;3.17;;;36.70;54.10;;;;;;5091806;28;20149;-73
2022/07/23 12:41:14;;;;;;;3.10;2.42;;;36.60;52.70;;;;;;5091992;28;20387;-73
2022/07/23 12:43:44;;;;;;;4.82;2.75;;;36.60;52.90;;;;;;5075201;28;20036;-72
2022/07/23 12:46:22;;;;;;;4.88;3.05;;;36.50;53.30;;;;;;5092195;28;20048;-72
2022/07/23 12:48:54;;;;;;;2.97;2.38;;;36.40;53.10;;;;;;5091470;28;20040;-73
2022/07/23 12:51:32;;;;;;;4.25;2.90;;;36.40;53.00;;;;;;5074290;28;20060;-72
2022/07/23 12:54:06;;;;;;;4.00;2.78;;;36.40;53.10;;;;;;5091390;28;20047;-74
2022/07/23 12:56:36;;;;;;;7.28;2.97;;;36.40;54.30;;;;;;5075615;28;20060;-73
2022/07/23 12:59:04;;;;;;;3.85;2.70;;;36.40;53.20;;;;;;5092032;28;20764;-73
2022/07/23 13:01:34;;;;;;;4.95;3.47;;;36.50;54.10;;;;;;5091483;28;20047;-72
2022/07/23 13:04:03;;;;;;;6.15;3.50;;;36.50;55.60;;;;;;5091656;28;20048;-74
2022/07/23 13:06:38;;;;;;;5.53;2.42;;;36.50;55.70;;;;;;5074980;28;20117;-73